Time;durP1;ratioP1;P1;durP2;ratioP2;P2;SDS_P1;SDS_P2;PMS_P1;PMS_P2;Temp;Humidity;BMP_temperature;BMP_pressure;BME280_temperature;BME280_humidity;BME280_pressure;Samples;Min_cycle;Max_cycle;Signal;HPM_P1;HPM_P2
2023/08/29 04:02:33;;;;;;;2.20;1.80;;;16.20;83.90;;;;;;5030755;23;20499;-75
2023/08/29 04:05:11;;;;;;;2.10;1.60;;;16.20;83.50;;;;;;4917138;29;20870;-75
2023/08/29 04:07:38;;;;;;;2.83;2.20;;;16.10;83.60;;;;;;4916941;29;20567;-75
2023/08/29 04:10:05;;;;;;;2.00;1.60;;;16.00;83.70;;;;;;4916907;29;20496;-74
2023/08/29 04:12:32;;;;;;;2.77;2.27;;;15.90;84.30;;;;;;4916455;29;20984;-74
2023/08/29 04:14:59;;;;;;;3.23;2.23;;;15.90;84.20;;;;;;4917140;29;20870;-75
2023/08/29 04:17:25;;;;;;;2.80;2.37;;;15.90;84.40;;;;;;4916460;29;20854;-75
2023/08/29 04:19:53;;;;;;;3.00;2.47;;;15.90;84.20;;;;;;4916573;29;20965;-75
2023/08/29 04:22:20;;;;;;;3.00;2.57;;;15.80;84.50;;;;;;4916764;29;20472;-75
2023/08/29 04:24:48;;;;;;;3.20;2.90;;;15.80;84.40;;;;;;4916835;29;20449;-75
2023/08/29 04:27:15;;;;;;;2.90;2.70;;;15.80;84.70;;;;;;4916580;29;20492;-75
2023/08/29 04:29:43;;;;;;;5.90;3.17;;;15.70;84.80;;;;;;4919498;29;20453;-75
2023/08/29 04:32:09;;;;;;;3.30;3.00;;;15.70;84.80;;;;;;4919985;29;20982;-74
2023/08/29 04:34:38;;;;;;;3.47;3.17;;;15.60;85.10;;;;;;4920322;29;20444;-75
2023/08/29 04:37:06;;;;;;;3.83;3.53;;;15.60;85.20;;;;;;4920246;29;20440;-75
2023/08/29 04:39:32;;;;;;;2.93;2.60;;;15.60;85.30;;;;;;4919938;29;20447;-75
2023/08/29 04:41:59;;;;;;;3.87;3.47;;;15.60;85.20;;;;;;4920202;29;20472;-75
2023/08/29 04:44:27;;;;;;;3.77;3.47;;;15.60;85.40;;;;;;4920230;29;20504;-75
2023/08/29 04:46:54;;;;;;;4.33;3.47;;;15.70;85.30;;;;;;4920074;29;20487;-75
2023/08/29 04:49:21;;;;;;;3.37;3.07;;;15.70;85.30;;;;;;4920117;29;20452;-75
2023/08/29 04:51:48;;;;;;;5.00;3.83;;;15.70;85.30;;;;;;4919956;29;20476;-75
2023/08/29 04:54:16;;;;;;;4.30;3.73;;;15.80;85.00;;;;;;4919683;29;20942;-75
2023/08/29 04:56:43;;;;;;;5.50;3.50;;;15.70;85.00;;;;;;4919592;29;20818;-75
2023/08/29 04:59:09;;;;;;;3.60;3.30;;;15.60;85.50;;;;;;4919914;29;20455;-75
2023/08/29 05:01:37;;;;;;;4.47;4.07;;;15.60;85.60;;;;;;4919537;29;20905;-77
2023/08/29 05:04:04;;;;;;;3.70;3.40;;;15.60;85.60;;;;;;4919863;29;20452;-75
2023/08/29 05:06:31;;;;;;;3.70;3.40;;;15.70;85.50;;;;;;4919736;29;20456;-75
2023/08/29 05:08:58;;;;;;;4.27;3.57;;;15.70;85.50;;;;;;4919740;29;20508;-76
2023/08/29 05:11:26;;;;;;;4.77;4.10;;;15.80;85.50;;;;;;4919588;29;20479;-75
2023/08/29 05:13:52;;;;;;;4.13;3.73;;;15.80;85.30;;;;;;4919589;29;20445;-75
2023/08/29 05:16:19;;;;;;;4.47;3.70;;;15.80;85.30;;;;;;4919569;29;20448;-75
2023/08/29 05:18:46;;;;;;;3.93;3.53;;;15.80;85.60;;;;;;4919464;29;20507;-75
2023/08/29 05:21:13;;;;;;;4.27;3.87;;;15.90;85.60;;;;;;4919312;29;20479;-74
2023/08/29 05:23:39;;;;;;;4.30;3.90;;;15.90;85.60;;;;;;4919397;29;20476;-75
2023/08/29 05:26:06;;;;;;;4.20;3.80;;;15.90;85.40;;;;;;4919399;29;20500;-75
2023/08/29 05:28:35;;;;;;;3.70;3.40;;;15.90;85.70;;;;;;4919266;29;20500;-75
2023/08/29 05:31:01;;;;;;;4.17;3.77;;;15.90;85.80;;;;;;4919371;29;20524;-76
2023/08/29 05:33:29;;;;;;;5.30;3.77;;;16.00;86.30;;;;;;4919384;29;20455;-77
2023/08/29 05:35:56;;;;;;;4.50;4.10;;;16.00;86.00;;;;;;4919297;29;20460;-76
2023/08/29 05:38:25;;;;;;;4.33;3.93;;;16.00;86.10;;;;;;4919259;29;20870;-77
2023/08/29 05:40:52;;;;;;;4.23;3.83;;;16.00;86.30;;;;;;4917920;29;20890;-76
2023/08/29 05:43:19;;;;;;;3.60;3.30;;;16.00;85.90;;;;;;4919301;29;20500;-75
2023/08/29 05:45:47;;;;;;;4.43;4.03;;;16.00;85.90;;;;;;4919141;29;20445;-75
2023/08/29 05:48:14;;;;;;;4.57;4.17;;;15.90;85.90;;;;;;4919020;29;20556;-75
2023/08/29 05:50:41;;;;;;;4.00;3.70;;;15.90;86.10;;;;;;4919019;29;20539;-74
2023/08/29 05:53:07;;;;;;;4.93;4.53;;;15.90;86.50;;;;;;4919067;29;20516;-75
2023/08/29 05:55:34;;;;;;;4.80;4.40;;;15.90;86.30;;;;;;4918977;29;20452;-75
2023/08/29 05:58:01;;;;;;;4.87;4.23;;;15.90;86.60;;;;;;4918664;29;20456;-75
2023/08/29 06:00:29;;;;;;;5.07;4.67;;;15.90;86.30;;;;;;4918709;29;20456;-75
2023/08/29 06:02:57;;;;;;;4.27;3.87;;;15.90;86.30;;;;;;4918866;29;20436;-75
2023/08/29 06:05:26;;;;;;;4.23;3.83;;;15.90;86.30;;;;;;4918795;29;20460;-75
2023/08/29 06:07:53;;;;;;;4.30;3.90;;;15.90;86.10;;;;;;4918685;29;20480;-74
2023/08/29 06:10:20;;;;;;;4.83;4.40;;;15.90;86.00;;;;;;4918697;29;20453;-75
2023/08/29 06:12:47;;;;;;;3.50;3.20;;;15.90;85.90;;;;;;4918684;29;20452;-75
2023/08/29 06:15:14;;;;;;;3.70;3.40;;;16.00;86.00;;;;;;4918618;29;20445;-75
2023/08/29 06:17:41;;;;;;;4.73;4.33;;;16.00;85.90;;;;;;4918608;29;20496;-76
2023/08/29 06:20:11;;;;;;;4.07;3.77;;;16.00;85.90;;;;;;4918591;29;20472;-76
2023/08/29 06:22:37;;;;;;;4.40;4.00;;;16.10;85.80;;;;;;4918410;29;20473;-75
2023/08/29 06:25:05;;;;;;;4.20;3.47;;;16.10;85.60;;;;;;4918098;29;20873;-76
2023/08/29 06:27:33;;;;;;;3.80;3.50;;;16.10;85.50;;;;;;4918007;29;20485;-76
2023/08/29 06:29:59;;;;;;;3.57;3.20;;;16.00;85.30;;;;;;4918195;29;20495;-76
2023/08/29 06:32:26;;;;;;;3.90;3.60;;;16.00;85.50;;;;;;4917900;29;20468;-77
2023/08/29 06:34:53;;;;;;;3.77;3.43;;;16.10;85.40;;;;;;4918268;29;20452;-76
2023/08/29 06:37:22;;;;;;;4.10;3.70;;;16.10;85.50;;;;;;4918189;29;20476;-76
2023/08/29 06:39:48;;;;;;;3.70;3.10;;;16.10;85.80;;;;;;4918167;29;20448;-75
2023/08/29 06:42:15;;;;;;;5.10;3.30;;;16.10;85.80;;;;;;4917996;29;20477;-76
2023/08/29 06:44:42;;;;;;;4.27;3.00;;;16.20;85.80;;;;;;4918062;29;20449;-76
2023/08/29 06:47:09;;;;;;;3.83;3.23;;;16.20;85.40;;;;;;4917932;29;20592;-77
2023/08/29 06:49:36;;;;;;;4.57;3.00;;;16.20;85.30;;;;;;4918052;29;20500;-78
2023/08/29 06:52:03;;;;;;;4.17;3.33;;;16.20;85.30;;;;;;4918139;29;20473;-76
2023/08/29 06:54:31;;;;;;;4.00;3.10;;;16.20;85.70;;;;;;4917999;29;20445;-77
2023/08/29 06:56:58;;;;;;;4.23;3.77;;;16.30;85.70;;;;;;4917983;29;20456;-78
2023/08/29 06:59:24;;;;;;;4.10;3.67;;;16.30;85.60;;;;;;4917874;29;20456;-77
2023/08/29 07:01:51;;;;;;;4.67;4.27;;;16.30;85.80;;;;;;4917398;29;20497;-77
2023/08/29 07:04:17;;;;;;;4.50;4.10;;;16.20;85.80;;;;;;4917868;29;20440;-78
2023/08/29 07:06:44;;;;;;;4.03;3.63;;;16.30;85.90;;;;;;4917711;29;20449;-78
2023/08/29 07:09:11;;;;;;;5.00;4.60;;;16.40;85.60;;;;;;4917651;29;20492;-77
2023/08/29 07:11:39;;;;;;;4.50;4.10;;;16.40;85.60;;;;;;4917570;29;20467;-78
2023/08/29 07:14:05;;;;;;;3.87;3.57;;;16.40;85.50;;;;;;4917314;29;20946;-77
2023/08/29 07:16:32;;;;;;;4.40;4.00;;;16.40;85.80;;;;;;4917687;29;20456;-78
2023/08/29 07:18:59;;;;;;;4.67;4.27;;;16.30;85.80;;;;;;4917559;29;20449;-78
2023/08/29 07:21:26;;;;;;;4.63;4.23;;;16.30;86.00;;;;;;4917421;29;20564;-78
2023/08/29 07:23:54;;;;;;;4.43;4.00;;;16.30;86.20;;;;;;4917554;29;20452;-78
2023/08/29 07:26:20;;;;;;;4.77;4.33;;;16.40;86.00;;;;;;4917150;29;20447;-78
2023/08/29 07:28:48;;;;;;;4.83;3.97;;;16.40;86.10;;;;;;4917371;29;20858;-78
2023/08/29 07:31:15;;;;;;;4.63;4.23;;;16.40;86.20;;;;;;4917367;29;20500;-77
2023/08/29 07:33:42;;;;;;;4.47;4.07;;;16.50;86.20;;;;;;4917309;29;20449;-77
2023/08/29 07:36:08;;;;;;;5.23;4.73;;;16.50;86.10;;;;;;4917328;29;20441;-78
2023/08/29 07:38:35;;;;;;;4.37;3.97;;;16.50;86.20;;;;;;4917215;29;20441;-77
2023/08/29 07:41:02;;;;;;;4.43;4.03;;;16.60;86.00;;;;;;4917218;29;20472;-78
2023/08/29 07:43:29;;;;;;;3.93;3.63;;;16.60;86.10;;;;;;4917005;29;20943;-78
2023/08/29 07:45:58;;;;;;;4.87;4.37;;;16.60;85.90;;;;;;4917278;29;20449;-78
2023/08/29 07:48:25;;;;;;;3.90;3.60;;;16.70;86.00;;;;;;4916836;29;20939;-78
2023/08/29 07:50:52;;;;;;;4.90;4.50;;;16.80;86.10;;;;;;4917235;29;20568;-78
2023/08/29 07:53:19;;;;;;;4.23;3.83;;;16.90;85.80;;;;;;4917188;29;20532;-77
2023/08/29 07:55:45;;;;;;;4.77;4.37;;;16.90;85.70;;;;;;4917113;29;20445;-77
2023/08/29 07:58:12;;;;;;;4.40;4.00;;;16.90;85.40;;;;;;4917123;29;20507;-78
2023/08/29 08:00:39;;;;;;;4.17;3.77;;;16.80;84.90;;;;;;4916551;29;20943;-78
2023/08/29 08:03:07;;;;;;;4.50;4.10;;;16.70;85.10;;;;;;4917458;29;20451;-77
2023/08/29 08:05:33;;;;;;;3.97;3.60;;;16.70;85.50;;;;;;4920714;29;20547;-78
2023/08/29 08:08:00;;;;;;;4.23;3.80;;;16.80;85.60;;;;;;4920687;29;20544;-78
2023/08/29 08:10:27;;;;;;;3.60;3.30;;;16.80;85.70;;;;;;4920929;29;20531;-78
2023/08/29 08:12:54;;;;;;;3.70;3.40;;;16.80;85.80;;;;;;4920915;29;20535;-78
2023/08/29 08:15:21;;;;;;;4.20;3.20;;;16.80;86.10;;;;;;4920847;29;20798;-78
2023/08/29 08:17:48;;;;;;;4.10;3.80;;;16.70;85.70;;;;;;4920452;29;20881;-77
2023/08/29 08:20:16;;;;;;;3.60;3.30;;;16.70;86.00;;;;;;4920805;29;20460;-77
2023/08/29 08:22:42;;;;;;;3.60;3.30;;;16.80;86.20;;;;;;4920560;29;20473;-78
2023/08/29 08:25:10;;;;;;;5.63;4.10;;;16.80;86.00;;;;;;4920700;29;20448;-78
2023/08/29 08:27:40;;;;;;;4.00;3.20;;;16.70;85.50;;;;;;4920564;29;20572;-77
2023/08/29 08:30:08;;;;;;;3.77;3.47;;;16.70;85.80;;;;;;4920541;29;20456;-77
2023/08/29 08:32:35;;;;;;;5.97;3.80;;;16.70;85.90;;;;;;4920403;29;20993;-78
2023/08/29 08:35:04;;;;;;;4.30;3.90;;;16.70;86.40;;;;;;4920429;29;20448;-77
2023/08/29 08:37:33;;;;;;;4.07;3.67;;;16.70;86.40;;;;;;4920422;29;20448;-78
2023/08/29 08:40:00;;;;;;;4.20;3.80;;;16.60;86.40;;;;;;4920328;29;20500;-78
2023/08/29 08:42:28;;;;;;;3.70;3.30;;;16.70;86.40;;;;;;4920269;29;20480;-78
2023/08/29 08:44:55;;;;;;;3.90;3.60;;;16.60;85.80;;;;;;4920387;29;20500;-78
2023/08/29 08:47:23;;;;;;;4.20;3.80;;;16.60;86.30;;;;;;4920213;29;20447;-76
2023/08/29 08:49:49;;;;;;;4.77;3.60;;;16.70;86.30;;;;;;4920692;29;20454;-77
2023/08/29 08:52:17;;;;;;;3.80;3.50;;;16.70;86.40;;;;;;4920071;29;20469;-78
2023/08/29 08:54:45;;;;;;;4.23;3.93;;;16.90;86.30;;;;;;4919807;29;20505;-78
2023/08/29 08:57:13;;;;;;;3.77;3.47;;;16.90;86.40;;;;;;4920030;29;20496;-77
2023/08/29 08:59:40;;;;;;;4.10;3.80;;;17.10;86.30;;;;;;4920010;29;20452;-78
2023/08/29 09:02:13;;;;;;;4.63;4.00;;;17.10;86.00;;;;;;4919571;29;20485;-78
2023/08/29 09:04:40;;;;;;;3.83;3.47;;;17.10;85.50;;;;;;4919926;29;20428;-77
2023/08/29 09:07:07;;;;;;;3.90;3.60;;;17.10;85.70;;;;;;4919621;29;20444;-78
2023/08/29 09:09:33;;;;;;;5.57;3.73;;;17.00;86.10;;;;;;4919455;29;20491;-77
2023/08/29 09:12:01;;;;;;;3.87;3.57;;;17.10;85.50;;;;;;4919472;29;20825;-78
2023/08/29 09:14:28;;;;;;;4.03;3.60;;;17.10;85.50;;;;;;4921190;29;20444;-78
2023/08/29 09:16:56;;;;;;;4.50;3.90;;;17.20;85.10;;;;;;4922591;29;20472;-77
2023/08/29 09:19:23;;;;;;;4.30;3.90;;;17.10;85.00;;;;;;4923820;29;20488;-78
2023/08/29 09:21:50;;;;;;;4.33;3.93;;;17.10;85.40;;;;;;4922670;29;20516;-77
2023/08/29 09:24:23;;;;;;;4.13;3.77;;;17.10;85.70;;;;;;4921632;29;20998;-77
2023/08/29 09:26:50;;;;;;;3.97;3.60;;;17.10;85.90;;;;;;4920534;29;20492;-78
2023/08/29 09:29:19;;;;;;;3.57;3.27;;;17.20;85.70;;;;;;4919401;29;20488;-77
2023/08/29 09:31:47;;;;;;;3.87;3.57;;;17.30;85.70;;;;;;4919413;29;20560;-77
2023/08/29 09:34:25;;;;;;;3.60;3.30;;;17.40;85.20;;;;;;4919619;29;20456;-77
2023/08/29 09:36:53;;;;;;;3.77;3.47;;;17.40;84.70;;;;;;4919562;29;20516;-77
2023/08/29 09:39:20;;;;;;;3.73;3.33;;;17.40;84.60;;;;;;4919135;29;20949;-77
2023/08/29 09:42:00;;;;;;;3.70;3.40;;;17.30;84.60;;;;;;4920994;29;20524;-77
2023/08/29 09:44:28;;;;;;;3.53;3.23;;;17.30;85.20;;;;;;4919186;29;20460;-77
2023/08/29 09:46:55;;;;;;;3.47;3.17;;;17.40;85.00;;;;;;4919560;29;20479;-77
2023/08/29 09:49:22;;;;;;;4.00;3.60;;;17.40;85.10;;;;;;4919132;29;20556;-77
2023/08/29 09:51:49;;;;;;;3.60;3.30;;;17.40;84.90;;;;;;4921213;29;20467;-78
2023/08/29 09:54:20;;;;;;;5.27;3.90;;;17.50;84.60;;;;;;4920393;29;20535;-79
2023/08/29 09:56:46;;;;;;;4.30;3.90;;;17.50;85.10;;;;;;4921123;29;20437;-78
2023/08/29 09:59:18;;;;;;;3.90;3.50;;;17.60;85.20;;;;;;4925607;29;20477;-79
2023/08/29 10:01:47;;;;;;;3.90;3.60;;;17.60;85.10;;;;;;4919877;29;20491;-78
2023/08/29 10:04:20;;;;;;;4.10;3.70;;;17.60;85.40;;;;;;4919133;29;20827;-77
2023/08/29 10:06:49;;;;;;;3.50;3.20;;;17.70;85.30;;;;;;4919935;29;20429;-78
2023/08/29 10:09:18;;;;;;;4.67;4.20;;;17.90;85.40;;;;;;4920022;29;20488;-78
2023/08/29 10:11:45;;;;;;;4.00;3.70;;;18.10;85.10;;;;;;4919430;29;20479;-77
2023/08/29 10:14:13;;;;;;;4.10;3.70;;;18.00;83.50;;;;;;4973719;23;20477;-70
2023/08/29 10:16:40;;;;;;;4.00;3.70;;;18.00;83.30;;;;;;4899506;29;20942;-70
2023/08/29 10:19:08;;;;;;;3.67;3.20;;;18.10;83.50;;;;;;4899919;29;20446;-69
2023/08/29 10:21:36;;;;;;;4.00;3.63;;;18.20;83.60;;;;;;4899767;29;20449;-69
2023/08/29 10:24:05;;;;;;;4.13;3.73;;;18.20;83.70;;;;;;4899616;29;20445;-69
2023/08/29 10:26:33;;;;;;;4.37;3.97;;;18.20;83.80;;;;;;4898906;29;20543;-70
2023/08/29 10:28:59;;;;;;;4.23;3.83;;;18.40;83.30;;;;;;4899551;29;20529;-70
2023/08/29 10:31:27;;;;;;;3.90;3.60;;;18.40;83.40;;;;;;4899588;29;20450;-70
2023/08/29 10:33:56;;;;;;;4.97;3.97;;;18.60;83.30;;;;;;4899473;29;20891;-70
2023/08/29 10:36:24;;;;;;;4.17;3.87;;;18.60;83.30;;;;;;4899098;29;20477;-69
2023/08/29 10:38:51;;;;;;;4.07;3.70;;;18.60;82.30;;;;;;4900461;29;20498;-69
2023/08/29 10:41:18;;;;;;;3.53;3.23;;;18.60;82.90;;;;;;4899298;29;20449;-69
2023/08/29 10:43:45;;;;;;;3.57;3.27;;;18.70;82.90;;;;;;4899256;29;20450;-70
2023/08/29 10:46:14;;;;;;;5.50;3.20;;;18.70;81.50;;;;;;4899109;29;20525;-70
2023/08/29 10:48:55;;;;;;;3.27;2.97;;;18.70;81.20;;;;;;4899113;29;20486;-70
2023/08/29 10:51:25;;;;;;;3.93;3.63;;;18.60;81.00;;;;;;4899110;29;20431;-70
2023/08/29 10:53:53;;;;;;;3.80;3.30;;;18.40;81.30;;;;;;4898746;29;20960;-70
2023/08/29 10:56:24;;;;;;;3.90;3.60;;;18.40;81.80;;;;;;4898886;29;20473;-69
2023/08/29 10:58:51;;;;;;;4.67;4.20;;;18.20;82.20;;;;;;4898978;29;20426;-69
2023/08/29 11:01:31;;;;;;;3.60;3.23;;;18.20;82.70;;;;;;4898902;29;20445;-69
2023/08/29 11:03:59;;;;;;;4.10;3.80;;;18.20;82.70;;;;;;4898711;29;20456;-70
2023/08/29 11:06:48;;;;;;;3.87;3.57;;;18.20;83.10;;;;;;4898825;29;20484;-70
2023/08/29 11:09:20;;;;;;;4.40;4.10;;;18.20;83.40;;;;;;4898237;29;20557;-69
2023/08/29 11:12:06;;;;;;;7.23;3.37;;;18.20;83.70;;;;;;4898688;29;20450;-69
2023/08/29 11:14:51;;;;;;;3.60;3.30;;;18.20;83.60;;;;;;4898539;29;20504;-69
2023/08/29 11:17:23;;;;;;;3.27;2.97;;;18.10;83.30;;;;;;4898311;29;20951;-70
2023/08/29 11:19:52;;;;;;;3.90;3.60;;;18.00;83.40;;;;;;4898671;29;20439;-69
2023/08/29 11:22:22;;;;;;;4.40;4.00;;;17.90;83.50;;;;;;4898574;29;20450;-69
2023/08/29 11:24:54;;;;;;;3.90;3.60;;;17.90;83.70;;;;;;4898178;29;20497;-69
2023/08/29 11:27:21;;;;;;;4.63;4.00;;;17.90;83.90;;;;;;4898508;29;20440;-69
2023/08/29 11:29:48;;;;;;;4.30;4.00;;;17.80;84.30;;;;;;4898069;29;21009;-69
2023/08/29 11:32:16;;;;;;;3.93;3.63;;;17.80;84.50;;;;;;4898385;29;20451;-69
2023/08/29 11:34:42;;;;;;;5.20;4.80;;;17.70;84.80;;;;;;4898894;29;20465;-69
2023/08/29 11:37:09;;;;;;;4.53;4.13;;;17.70;85.00;;;;;;4898353;29;20450;-69
2023/08/29 11:39:38;;;;;;;5.10;4.70;;;17.80;85.20;;;;;;4898328;29;20533;-69
2023/08/29 11:42:06;;;;;;;4.97;4.63;;;17.70;85.90;;;;;;4898243;29;20497;-69
2023/08/29 11:44:34;;;;;;;5.00;4.60;;;17.80;85.90;;;;;;4898222;29;20509;-69
2023/08/29 11:47:01;;;;;;;8.90;6.60;;;17.80;86.30;;;;;;4897901;29;20457;-69
2023/08/29 11:49:27;;;;;;;4.50;4.10;;;17.90;86.00;;;;;;4898148;29;20576;-69
2023/08/29 11:51:54;;;;;;;5.37;4.90;;;18.00;85.30;;;;;;4897988;29;20456;-69
2023/08/29 11:54:45;;;;;;;5.10;4.70;;;18.10;85.50;;;;;;4898099;29;20469;-69
2023/08/29 11:57:13;;;;;;;4.50;4.10;;;18.30;84.90;;;;;;4898196;29;20434;-69
2023/08/29 11:59:41;;;;;;;5.00;4.60;;;18.30;84.60;;;;;;4897869;29;20967;-69
2023/08/29 12:02:09;;;;;;;4.50;4.20;;;18.30;83.30;;;;;;4898141;29;20798;-69
2023/08/29 12:04:40;;;;;;;4.87;4.47;;;18.30;84.40;;;;;;4898057;29;20521;-69
2023/08/29 12:07:09;;;;;;;4.97;4.47;;;18.30;83.30;;;;;;4898120;29;20524;-69
2023/08/29 12:09:37;;;;;;;4.30;3.97;;;18.30;83.80;;;;;;4898995;29;20577;-69
2023/08/29 12:12:07;;;;;;;7.17;4.43;;;18.40;83.10;;;;;;4897706;29;20871;-70
2023/08/29 12:14:49;;;;;;;5.10;4.70;;;18.30;83.80;;;;;;4897751;29;20488;-70
2023/08/29 12:17:16;;;;;;;8.70;5.43;;;18.30;83.80;;;;;;4898044;29;20489;-70
2023/08/29 12:19:43;;;;;;;4.73;4.33;;;18.40;84.10;;;;;;4897992;29;20437;-70
2023/08/29 12:22:09;;;;;;;5.07;4.67;;;18.40;84.10;;;;;;4897675;29;20529;-70
2023/08/29 12:24:36;;;;;;;5.40;5.00;;;18.50;84.20;;;;;;4897861;29;20472;-70
2023/08/29 12:27:04;;;;;;;4.57;4.27;;;18.50;83.30;;;;;;4897614;29;20947;-69
2023/08/29 12:29:32;;;;;;;4.80;4.40;;;18.50;83.30;;;;;;4897867;29;20529;-70
2023/08/29 12:31:59;;;;;;;5.67;5.23;;;18.40;82.70;;;;;;4897838;29;20449;-70
2023/08/29 12:34:27;;;;;;;4.90;4.50;;;18.40;83.10;;;;;;4897804;29;20472;-70
2023/08/29 12:36:54;;;;;;;5.50;5.00;;;18.30;83.30;;;;;;4897799;29;20547;-70
2023/08/29 12:39:21;;;;;;;4.73;4.43;;;18.10;83.70;;;;;;4897816;29;20472;-70
2023/08/29 12:41:47;;;;;;;5.77;5.27;;;18.00;83.90;;;;;;4897737;29;20505;-70
2023/08/29 12:44:14;;;;;;;5.10;4.70;;;18.00;84.10;;;;;;4897735;29;20449;-69
2023/08/29 12:46:42;;;;;;;5.30;4.90;;;17.90;84.70;;;;;;4897731;29;20475;-69
2023/08/29 12:49:08;;;;;;;5.30;4.90;;;17.90;85.10;;;;;;4898029;29;20488;-69
2023/08/29 12:51:35;;;;;;;5.70;5.30;;;17.90;85.40;;;;;;4901276;29;20513;-69
2023/08/29 12:54:02;;;;;;;5.07;4.67;;;17.90;85.50;;;;;;4901158;29;20457;-69
2023/08/29 12:56:29;;;;;;;4.30;4.00;;;18.00;85.30;;;;;;4901149;29;20454;-69
2023/08/29 12:58:55;;;;;;;5.43;5.00;;;18.00;85.00;;;;;;4901137;29;20449;-69
2023/08/29 13:01:27;;;;;;;6.23;5.73;;;18.10;85.10;;;;;;4901101;29;20454;-69
2023/08/29 13:03:56;;;;;;;5.17;4.77;;;18.20;85.40;;;;;;4901057;29;20430;-69
2023/08/29 13:06:23;;;;;;;5.70;5.30;;;18.20;85.50;;;;;;4901016;29;20460;-70
2023/08/29 13:08:49;;;;;;;5.20;4.80;;;18.30;85.40;;;;;;4900586;29;20951;-70
2023/08/29 13:11:16;;;;;;;6.00;5.60;;;18.30;85.40;;;;;;4900850;29;20474;-70
2023/08/29 13:13:42;;;;;;;4.80;4.40;;;18.20;85.90;;;;;;4900507;29;21007;-69
2023/08/29 13:16:09;;;;;;;4.87;4.47;;;18.20;84.90;;;;;;4900312;29;21017;-69
2023/08/29 13:18:36;;;;;;;4.53;4.13;;;18.10;84.80;;;;;;4900715;29;20478;-70
2023/08/29 13:21:04;;;;;;;3.77;3.47;;;18.10;85.20;;;;;;4900687;29;20445;-69
2023/08/29 13:23:30;;;;;;;3.20;2.47;;;18.10;84.50;;;;;;4900725;29;20463;-70
2023/08/29 13:25:57;;;;;;;3.37;3.07;;;18.10;83.70;;;;;;4900642;29;20472;-70
2023/08/29 13:28:24;;;;;;;3.53;3.23;;;18.10;83.60;;;;;;4900664;29;20462;-70
2023/08/29 13:30:51;;;;;;;3.40;3.10;;;18.00;84.10;;;;;;4900511;29;20537;-70
2023/08/29 13:33:17;;;;;;;3.43;3.13;;;18.00;83.90;;;;;;4900493;29;20449;-69
2023/08/29 13:35:44;;;;;;;3.30;3.00;;;18.00;84.30;;;;;;4900572;29;20478;-70
2023/08/29 13:38:12;;;;;;;2.77;2.57;;;18.20;84.10;;;;;;4900541;29;20445;-70
2023/08/29 13:40:38;;;;;;;2.50;2.30;;;18.20;83.20;;;;;;4900695;29;20449;-71
2023/08/29 13:43:05;;;;;;;3.10;2.80;;;18.30;82.70;;;;;;4900483;29;20501;-70
2023/08/29 13:45:32;;;;;;;2.87;2.20;;;18.40;82.70;;;;;;4900194;29;20461;-70
2023/08/29 13:47:59;;;;;;;3.40;3.10;;;18.50;82.70;;;;;;4899963;29;20846;-70
2023/08/29 13:50:25;;;;;;;2.53;2.33;;;18.50;82.00;;;;;;4900183;29;20549;-70
2023/08/29 13:52:52;;;;;;;2.83;2.63;;;18.50;82.10;;;;;;4899970;29;20505;-70
2023/08/29 13:55:20;;;;;;;2.50;2.30;;;18.60;81.40;;;;;;4900101;29;20505;-69
2023/08/29 13:57:47;;;;;;;3.00;2.60;;;18.70;82.10;;;;;;4900137;29;20891;-69
2023/08/29 14:00:14;;;;;;;3.50;2.60;;;18.80;81.90;;;;;;4899524;29;20943;-69
2023/08/29 14:02:41;;;;;;;3.40;2.70;;;18.90;81.80;;;;;;4899298;29;20513;-69
2023/08/29 14:05:08;;;;;;;3.23;2.93;;;19.00;81.90;;;;;;4899972;29;20897;-68
2023/08/29 14:07:36;;;;;;;4.43;3.20;;;19.00;80.10;;;;;;4900480;29;20452;-69
2023/08/29 14:10:02;;;;;;;3.87;3.57;;;18.90;80.90;;;;;;4899794;29;20584;-69
2023/08/29 14:12:30;;;;;;;4.03;3.17;;;19.00;81.20;;;;;;4899792;29;20460;-69
2023/08/29 14:14:57;;;;;;;3.60;3.30;;;19.10;81.40;;;;;;4899461;29;20477;-69
2023/08/29 14:17:24;;;;;;;3.70;3.40;;;19.10;81.20;;;;;;4899716;29;20454;-69
2023/08/29 14:19:50;;;;;;;4.07;3.43;;;19.10;81.30;;;;;;4899354;29;20881;-69
2023/08/29 14:22:17;;;;;;;3.10;2.80;;;18.80;80.60;;;;;;4899409;29;20513;-69
2023/08/29 14:24:44;;;;;;;3.30;3.00;;;18.70;82.00;;;;;;4899237;29;20999;-68
2023/08/29 14:27:56;;;;;;;3.90;3.50;;;18.70;82.10;;;;;;4899719;29;20453;-68
2023/08/29 14:30:22;;;;;;;3.20;2.90;;;18.60;82.40;;;;;;4889822;29;20485;-68
2023/08/29 14:32:50;;;;;;;3.20;2.90;;;18.60;82.80;;;;;;4900086;29;20446;-68
2023/08/29 14:35:18;;;;;;;3.60;3.30;;;18.50;83.10;;;;;;4899530;29;20461;-68
2023/08/29 14:37:45;;;;;;;3.30;3.00;;;18.60;83.30;;;;;;4899325;29;20963;-68
2023/08/29 14:40:12;;;;;;;2.50;2.30;;;18.70;83.50;;;;;;4899094;29;20932;-69
2023/08/29 14:42:40;;;;;;;2.70;2.50;;;18.80;83.00;;;;;;4899334;29;20454;-69
2023/08/29 14:45:08;;;;;;;4.27;2.40;;;18.70;81.20;;;;;;4899617;29;20902;-69
2023/08/29 14:47:34;;;;;;;2.80;2.10;;;18.80;80.30;;;;;;4899221;29;20823;-69
2023/08/29 14:50:01;;;;;;;3.13;2.00;;;18.80;80.40;;;;;;4898863;29;21003;-69
2023/08/29 14:52:28;;;;;;;2.00;1.50;;;18.80;80.80;;;;;;4899107;29;20479;-68
2023/08/29 14:54:54;;;;;;;2.00;1.50;;;18.80;81.10;;;;;;4898685;29;20832;-68
2023/08/29 14:57:22;;;;;;;2.50;2.10;;;18.90;80.30;;;;;;4898748;29;20987;-68
2023/08/29 14:59:50;;;;;;;2.73;1.90;;;18.90;80.00;;;;;;4899005;29;20453;-69
2023/08/29 15:02:16;;;;;;;2.30;1.90;;;18.80;80.70;;;;;;4898922;29;20457;-68
2023/08/29 15:04:43;;;;;;;2.20;1.63;;;18.80;80.90;;;;;;4898801;29;20477;-68
2023/08/29 15:07:14;;;;;;;2.57;1.97;;;18.90;81.30;;;;;;4898842;29;20458;-68
2023/08/29 15:09:41;;;;;;;2.30;1.53;;;19.00;80.60;;;;;;4898765;29;20529;-68
2023/08/29 15:12:08;;;;;;;2.10;1.70;;;19.00;79.80;;;;;;4898488;29;20840;-68
2023/08/29 15:14:35;;;;;;;2.90;2.00;;;19.10;80.20;;;;;;4898514;29;20477;-68
2023/08/29 15:17:03;;;;;;;2.43;1.63;;;19.20;80.80;;;;;;4898745;29;20434;-68
2023/08/29 15:19:30;;;;;;;2.60;1.63;;;19.10;79.80;;;;;;4898669;29;20545;-69
2023/08/29 15:21:57;;;;;;;2.17;1.67;;;19.20;80.10;;;;;;4898629;29;20476;-69
2023/08/29 15:24:23;;;;;;;2.57;2.10;;;19.30;81.00;;;;;;4898533;29;20506;-68
2023/08/29 15:26:50;;;;;;;2.20;2.00;;;19.40;81.30;;;;;;4898552;29;20488;-68
2023/08/29 15:29:17;;;;;;;3.97;1.87;;;19.30;81.00;;;;;;4898230;29;20458;-68
2023/08/29 15:31:44;;;;;;;2.00;1.60;;;19.20;81.00;;;;;;4898363;29;20573;-69
2023/08/29 15:34:12;;;;;;;2.50;2.03;;;19.20;80.80;;;;;;4898368;29;20449;-69
2023/08/29 15:36:38;;;;;;;2.20;1.80;;;19.20;81.00;;;;;;4898391;29;20445;-69
2023/08/29 15:39:05;;;;;;;2.13;1.87;;;19.10;80.40;;;;;;4898378;29;20505;-68
2023/08/29 15:41:32;;;;;;;1.90;1.43;;;18.80;81.20;;;;;;4898025;29;20446;-69
2023/08/29 15:43:59;;;;;;;2.30;2.03;;;18.70;82.40;;;;;;4897905;29;20943;-69
2023/08/29 15:46:26;;;;;;;1.90;1.50;;;18.70;82.70;;;;;;4898250;29;20454;-69
2023/08/29 15:48:52;;;;;;;2.27;1.40;;;18.70;80.30;;;;;;4898175;29;20449;-69
2023/08/29 15:51:20;;;;;;;2.10;1.30;;;18.60;81.20;;;;;;4898174;29;20485;-69
2023/08/29 15:53:47;;;;;;;1.90;1.40;;;18.60;81.70;;;;;;4898204;29;20634;-69
2023/08/29 15:56:14;;;;;;;2.20;1.50;;;18.50;81.80;;;;;;4898015;29;20473;-69
2023/08/29 15:58:41;;;;;;;1.93;1.47;;;18.60;81.60;;;;;;4898151;29;20510;-69
2023/08/29 16:01:08;;;;;;;2.10;1.67;;;18.60;81.90;;;;;;4898121;29;20449;-68
2023/08/29 16:03:35;;;;;;;1.90;1.30;;;18.70;81.80;;;;;;4897798;29;20971;-69
2023/08/29 16:06:02;;;;;;;2.20;1.30;;;18.70;81.60;;;;;;4897689;29;21001;-69
2023/08/29 16:08:32;;;;;;;2.20;1.40;;;18.70;81.50;;;;;;4898073;29;20465;-69
2023/08/29 16:10:59;;;;;;;1.93;1.30;;;18.70;81.40;;;;;;4897937;29;20687;-69
2023/08/29 16:13:26;;;;;;;2.13;1.30;;;18.70;80.90;;;;;;4897715;29;20948;-68
2023/08/29 16:15:55;;;;;;;1.80;1.30;;;18.80;80.80;;;;;;4933693;23;20877;-76
2023/08/29 16:18:22;;;;;;;2.10;1.70;;;18.80;79.90;;;;;;4917185;29;20440;-77
2023/08/29 16:20:51;;;;;;;2.40;1.20;;;18.70;80.30;;;;;;4916855;29;20468;-76
2023/08/29 16:23:18;;;;;;;2.03;1.40;;;18.80;81.20;;;;;;4916840;29;20803;-77
2023/08/29 16:25:48;;;;;;;1.97;1.20;;;18.80;81.80;;;;;;4919752;29;20487;-76
2023/08/29 16:28:16;;;;;;;2.20;1.37;;;18.90;81.80;;;;;;4920587;29;20460;-76
2023/08/29 16:30:42;;;;;;;2.63;1.17;;;18.80;81.30;;;;;;4920186;29;21069;-76
2023/08/29 16:33:09;;;;;;;2.00;1.30;;;18.70;81.00;;;;;;4920196;29;20954;-77
2023/08/29 16:35:36;;;;;;;1.77;1.20;;;18.60;81.10;;;;;;4920142;29;20906;-75
2023/08/29 16:38:04;;;;;;;1.70;1.13;;;18.60;81.10;;;;;;4920394;29;20459;-77
2023/08/29 16:40:30;;;;;;;2.00;1.40;;;18.60;80.80;;;;;;4920422;29;20535;-76
2023/08/29 16:42:59;;;;;;;2.50;1.60;;;18.60;81.50;;;;;;4920090;29;20946;-77
2023/08/29 16:45:25;;;;;;;2.00;1.10;;;18.50;82.00;;;;;;4920404;29;20838;-76
2023/08/29 16:47:54;;;;;;;2.87;1.23;;;18.40;82.70;;;;;;4920254;29;20504;-77
2023/08/29 16:50:21;;;;;;;2.23;1.37;;;18.20;82.70;;;;;;4920494;29;20512;-77
2023/08/29 16:52:48;;;;;;;2.30;1.17;;;18.20;83.00;;;;;;4920762;29;20448;-77